createdAt,value
2018-10-19T00:00:21.142Z,11.70
2018-10-19T00:02:49.588Z,11.60
2018-10-19T00:05:18.392Z,11.50
2018-10-19T00:07:47.115Z,11.50
2018-10-19T00:10:15.607Z,11.40
2018-10-19T00:12:44.378Z,11.40
2018-10-19T00:15:12.857Z,11.40
2018-10-19T00:17:41.367Z,11.40
2018-10-19T00:20:10.326Z,11.40
2018-10-19T00:22:38.802Z,11.40
2018-10-19T00:25:07.803Z,11.30
2018-10-19T00:27:36.267Z,11.50
2018-10-19T00:30:05.159Z,11.40
2018-10-19T00:32:33.621Z,11.40
2018-10-19T00:35:02.129Z,11.50
2018-10-19T00:37:30.536Z,11.50
2018-10-19T00:39:58.967Z,11.60
2018-10-19T00:42:27.423Z,11.70
2018-10-19T00:44:55.920Z,11.60
2018-10-19T00:47:24.382Z,11.50
2018-10-19T00:49:52.876Z,11.60
2018-10-19T00:52:21.386Z,11.70
2018-10-19T00:54:49.852Z,11.60
2018-10-19T00:57:18.652Z,11.60
2018-10-19T00:59:47.157Z,11.60
2018-10-19T01:02:15.678Z,11.60
2018-10-19T01:04:44.136Z,11.30
2018-10-19T01:07:12.666Z,11.40
2018-10-19T01:09:41.155Z,11.40
2018-10-19T01:12:09.971Z,11.40
2018-10-19T01:14:38.448Z,11.40
2018-10-19T01:17:07.038Z,11.50
2018-10-19T01:19:35.492Z,11.50
2018-10-19T01:22:04.066Z,11.40
2018-10-19T01:24:32.564Z,11.20
2018-10-19T01:27:01.095Z,11.10
2018-10-19T01:29:29.594Z,11.20
2018-10-19T01:31:58.098Z,11.20
2018-10-19T01:34:26.922Z,11.30
2018-10-19T01:36:55.413Z,11.30
2018-10-19T01:39:23.899Z,11.00
2018-10-19T01:41:52.377Z,11.00
2018-10-19T01:44:21.106Z,11.10
2018-10-19T01:46:50.472Z,11.10
2018-10-19T01:49:20.186Z,11.10
2018-10-19T01:51:48.694Z,11.20
2018-10-19T01:54:17.645Z,11.30
2018-10-19T01:56:46.221Z,11.30
2018-10-19T01:59:14.749Z,11.20
2018-10-19T02:01:43.423Z,11.20
2018-10-19T02:04:12.165Z,11.20
2018-10-19T02:06:40.605Z,11.30
2018-10-19T02:09:09.151Z,11.50
2018-10-19T02:11:37.534Z,11.50
2018-10-19T02:14:06.094Z,11.40
2018-10-19T02:16:34.767Z,11.30
2018-10-19T02:19:03.238Z,11.20
2018-10-19T02:21:31.693Z,11.30
2018-10-19T02:24:00.187Z,11.30
2018-10-19T02:26:28.869Z,11.40
2018-10-19T02:28:57.717Z,11.60
2018-10-19T02:31:26.430Z,11.50
2018-10-19T02:33:54.903Z,11.50
2018-10-19T02:36:23.347Z,11.30
2018-10-19T02:38:51.799Z,11.20
2018-10-19T02:41:20.284Z,11.30
2018-10-19T02:43:48.992Z,11.30
2018-10-19T02:46:17.430Z,11.30
2018-10-19T02:48:45.935Z,11.30
2018-10-19T02:51:14.482Z,11.30
2018-10-19T02:53:42.826Z,11.20
2018-10-19T02:56:11.894Z,11.30
2018-10-19T02:58:40.634Z,11.40
2018-10-19T03:01:09.056Z,11.30
2018-10-19T03:03:37.835Z,11.40
2018-10-19T03:06:06.260Z,11.50
2018-10-19T03:08:34.694Z,11.60
2018-10-19T03:11:03.123Z,11.50
2018-10-19T03:13:31.786Z,11.50
2018-10-19T03:16:00.294Z,11.40
2018-10-19T03:18:29.083Z,11.50
2018-10-19T03:20:57.879Z,11.50
2018-10-19T03:23:26.330Z,11.50
2018-10-19T03:25:55.374Z,11.50
2018-10-19T03:28:23.804Z,11.50
2018-10-19T03:30:52.577Z,11.40
2018-10-19T03:33:21.297Z,11.30
2018-10-19T03:35:49.737Z,11.40
2018-10-19T03:38:18.209Z,11.40
2018-10-19T03:40:46.741Z,11.40
2018-10-19T03:43:15.158Z,11.70
2018-10-19T03:45:43.597Z,11.60
2018-10-19T03:48:12.020Z,11.60
2018-10-19T03:50:40.502Z,11.50
2018-10-19T03:53:09.001Z,11.50
2018-10-19T03:55:37.730Z,11.60
2018-10-19T03:58:06.800Z,11.60
2018-10-19T04:00:35.272Z,11.60
2018-10-19T04:03:05.703Z,11.70
2018-10-19T04:05:34.211Z,11.60
2018-10-19T04:08:03.001Z,11.60
2018-10-19T04:10:31.499Z,11.70
2018-10-19T04:12:59.929Z,11.50
2018-10-19T04:15:28.840Z,11.50
2018-10-19T04:17:57.494Z,11.40
2018-10-19T04:20:25.944Z,11.50
2018-10-19T04:22:57.562Z,11.50
2018-10-19T04:25:26.607Z,11.50
2018-10-19T04:27:55.363Z,11.50
2018-10-19T04:30:24.116Z,11.50
2018-10-19T04:32:52.645Z,11.50
2018-10-19T04:35:21.345Z,11.50
2018-10-19T04:37:49.768Z,11.40
2018-10-19T04:40:20.066Z,11.40
2018-10-19T04:42:48.527Z,11.50
2018-10-19T04:45:17.998Z,11.50
2018-10-19T04:47:46.475Z,11.50
2018-10-19T04:50:15.252Z,11.40
2018-10-19T04:52:43.730Z,11.40
2018-10-19T04:55:16.561Z,11.40
2018-10-19T04:57:45.554Z,11.50
2018-10-19T05:00:14.510Z,11.50
2018-10-19T05:02:43.385Z,11.40
2018-10-19T05:05:11.878Z,11.40
2018-10-19T05:07:40.268Z,11.40
2018-10-19T05:10:09.447Z,11.30
2018-10-19T05:12:38.023Z,11.20
2018-10-19T05:15:08.159Z,11.10
2018-10-19T05:17:36.642Z,11.10
2018-10-19T05:20:07.045Z,11.00
2018-10-19T05:22:35.523Z,11.00
2018-10-19T05:25:04.307Z,11.00
2018-10-19T05:27:32.807Z,10.90
2018-10-19T05:30:01.303Z,10.80
2018-10-19T05:32:30.094Z,10.80
2018-10-19T05:34:58.898Z,10.90
2018-10-19T05:37:27.698Z,10.90
2018-10-19T05:39:56.143Z,10.90
2018-10-19T05:42:24.626Z,10.90
2018-10-19T05:44:53.059Z,10.90
2018-10-19T05:47:21.518Z,10.80
2018-10-19T05:49:49.960Z,10.80
2018-10-19T05:52:18.665Z,10.80
2018-10-19T05:54:47.154Z,10.90
2018-10-19T05:57:15.599Z,11.00
2018-10-19T05:59:44.024Z,10.90
2018-10-19T06:02:13.166Z,11.10
2018-10-19T06:04:41.790Z,11.20
2018-10-19T06:07:10.245Z,11.00
2018-10-19T06:09:38.724Z,10.90
2018-10-19T06:12:07.572Z,11.00
2018-10-19T06:14:36.331Z,11.00
2018-10-19T06:17:05.198Z,11.10
2018-10-19T06:19:33.557Z,11.20
2018-10-19T06:22:02.055Z,11.20
2018-10-19T06:24:30.806Z,11.20
2018-10-19T06:26:59.271Z,11.20
2018-10-19T06:29:27.795Z,11.30
2018-10-19T06:31:56.290Z,11.30
2018-10-19T06:34:25.024Z,11.30
2018-10-19T06:36:53.465Z,11.20
2018-10-19T06:39:21.879Z,11.30
2018-10-19T06:41:50.318Z,11.40
2018-10-19T06:44:18.788Z,11.40
2018-10-19T06:46:47.685Z,11.40
2018-10-19T06:49:16.117Z,11.40
2018-10-19T06:51:44.578Z,11.50
2018-10-19T06:54:13.267Z,11.60
2018-10-19T06:56:41.724Z,11.60
2018-10-19T06:59:10.918Z,11.60
2018-10-19T07:01:39.198Z,11.60
2018-10-19T07:04:07.651Z,11.80
2018-10-19T07:06:36.217Z,11.90
2018-10-19T07:09:06.380Z,11.90
2018-10-19T07:11:34.877Z,11.80
2018-10-19T07:14:03.348Z,11.60
2018-10-19T07:16:32.099Z,11.70
2018-10-19T07:19:00.592Z,11.90
2018-10-19T07:21:29.320Z,11.90
2018-10-19T07:23:57.739Z,12.00
2018-10-19T07:26:26.406Z,11.90
2018-10-19T07:28:55.193Z,11.90
2018-10-19T07:31:23.597Z,11.80
2018-10-19T07:33:52.584Z,12.00
2018-10-19T07:36:21.019Z,12.10
2018-10-19T07:38:49.507Z,11.90
2018-10-19T07:41:17.939Z,12.10
2018-10-19T07:43:46.374Z,12.10
2018-10-19T07:46:15.097Z,11.90
2018-10-19T07:48:43.911Z,12.20
2018-10-19T07:51:12.602Z,12.10
2018-10-19T07:53:41.319Z,12.10
2018-10-19T07:56:09.822Z,12.20
2018-10-19T07:58:38.254Z,12.30
2018-10-19T08:01:07.094Z,12.30
2018-10-19T08:03:35.579Z,12.40
2018-10-19T08:06:04.048Z,12.60
2018-10-19T08:08:32.523Z,12.70
2018-10-19T08:11:01.037Z,12.90
2018-10-19T08:13:29.462Z,13.00
2018-10-19T08:15:57.961Z,13.10
2018-10-19T08:18:26.455Z,13.30
2018-10-19T08:20:54.943Z,13.50
2018-10-19T08:23:23.382Z,13.80
2018-10-19T08:25:51.844Z,13.80
2018-10-19T08:28:20.322Z,14.00
2018-10-19T08:30:48.775Z,14.00
2018-10-19T08:33:17.260Z,14.00
2018-10-19T08:35:45.702Z,13.90
2018-10-19T08:38:14.209Z,13.80
2018-10-19T08:40:42.737Z,13.90
2018-10-19T08:43:11.165Z,13.90
2018-10-19T08:45:39.882Z,14.00
2018-10-19T08:48:08.680Z,14.20
2018-10-19T08:50:37.144Z,14.60
2018-10-19T08:53:05.730Z,14.90
2018-10-19T08:55:34.208Z,15.20
2018-10-19T08:58:02.706Z,15.30
2018-10-19T09:00:31.171Z,15.20
2018-10-19T09:02:59.943Z,15.20
2018-10-19T09:05:28.383Z,15.30
2018-10-19T09:07:56.847Z,15.30
2018-10-19T09:10:25.282Z,15.30
2018-10-19T09:12:53.847Z,15.50
2018-10-19T09:15:22.557Z,15.70
2018-10-19T09:17:50.974Z,16.00
2018-10-19T09:20:19.431Z,16.00
2018-10-19T09:22:48.517Z,16.00
2018-10-19T09:25:16.972Z,16.20
2018-10-19T09:27:45.467Z,16.40
2018-10-19T09:30:13.940Z,16.60
2018-10-19T09:32:42.398Z,16.80
2018-10-19T09:35:11.207Z,16.90
2018-10-19T09:37:39.596Z,17.00
2018-10-19T09:40:08.135Z,17.10
2018-10-19T09:42:36.624Z,17.10
2018-10-19T09:45:05.629Z,17.20
2018-10-19T09:47:34.184Z,17.20
2018-10-19T09:50:02.592Z,17.40
2018-10-19T09:52:31.385Z,17.50
2018-10-19T09:54:59.913Z,17.50
2018-10-19T09:57:28.298Z,17.50
2018-10-19T09:59:56.812Z,17.80
2018-10-19T10:02:25.285Z,18.10
2018-10-19T10:04:53.765Z,18.00
2018-10-19T10:07:22.563Z,18.20
2018-10-19T10:09:51.051Z,18.40
2018-10-19T10:12:19.515Z,18.40
2018-10-19T10:14:48.084Z,18.30
2018-10-19T10:17:16.591Z,18.20
2018-10-19T10:19:45.151Z,18.50
2018-10-19T10:22:13.630Z,18.90
2018-10-19T10:24:42.135Z,19.00
2018-10-19T10:27:10.555Z,19.20
2018-10-19T10:29:39.041Z,18.70
2018-10-19T10:32:07.521Z,18.90
2018-10-19T10:34:35.994Z,19.00
2018-10-19T10:37:05.376Z,19.20
2018-10-19T10:39:33.881Z,19.40
2018-10-19T10:42:02.341Z,19.40
2018-10-19T10:44:30.849Z,19.60
2018-10-19T10:46:59.541Z,19.60
2018-10-19T10:49:28.035Z,19.40
2018-10-19T10:51:56.856Z,19.30
2018-10-19T10:54:25.271Z,19.70
2018-10-19T10:56:54.323Z,20.00
2018-10-19T10:59:22.818Z,19.80
2018-10-19T11:01:51.261Z,19.80
2018-10-19T11:04:19.768Z,20.10
2018-10-19T11:06:48.228Z,20.20
2018-10-19T11:09:16.991Z,20.30
2018-10-19T11:11:45.751Z,20.20
2018-10-19T11:14:14.533Z,19.70
2018-10-19T11:16:43.017Z,19.70
2018-10-19T11:19:11.860Z,19.90
2018-10-19T11:21:40.571Z,19.60
2018-10-19T11:24:09.119Z,19.40
2018-10-19T11:26:37.551Z,19.30
2018-10-19T11:29:06.335Z,19.30
2018-10-19T11:31:34.791Z,19.20
2018-10-19T11:34:03.324Z,19.10
2018-10-19T11:36:32.078Z,19.00
2018-10-19T11:39:00.564Z,18.90
2018-10-19T11:41:30.263Z,19.00
2018-10-19T11:43:58.723Z,19.00
2018-10-19T11:46:27.233Z,19.00
2018-10-19T11:48:55.803Z,18.90
2018-10-19T11:51:24.230Z,19.00
2018-10-19T11:53:52.910Z,19.10
2018-10-19T11:56:21.428Z,19.30
2018-10-19T11:58:49.904Z,19.20
2018-10-19T12:01:18.451Z,19.30
2018-10-19T12:03:47.230Z,19.30
2018-10-19T12:06:15.760Z,18.90
2018-10-19T12:08:44.194Z,19.00
2018-10-19T12:11:12.979Z,19.10
2018-10-19T12:13:41.433Z,19.20
2018-10-19T12:16:10.293Z,19.40
2018-10-19T12:18:38.682Z,19.60
2018-10-19T12:21:07.444Z,19.70
2018-10-19T12:23:35.919Z,19.60
2018-10-19T12:26:04.525Z,19.40
2018-10-19T12:28:33.206Z,19.50
2018-10-19T12:31:01.692Z,19.40
2018-10-19T12:33:30.470Z,19.50
2018-10-19T12:35:58.936Z,19.40
2018-10-19T12:38:27.379Z,19.40
2018-10-19T12:40:55.892Z,19.40
2018-10-19T12:43:24.298Z,19.30
2018-10-19T12:46:31.567Z,19.10
2018-10-19T12:49:00.047Z,19.20
2018-10-19T12:51:28.500Z,19.30
2018-10-19T12:53:57.032Z,19.50
2018-10-19T12:56:25.438Z,19.20
2018-10-19T12:58:54.539Z,18.70
2018-10-19T13:01:23.960Z,18.90
2018-10-19T13:03:52.420Z,19.10
2018-10-19T13:06:20.985Z,19.10
2018-10-19T13:08:56.066Z,19.10
2018-10-19T13:11:24.844Z,19.10
2018-10-19T13:13:53.499Z,18.80
2018-10-19T13:16:22.031Z,18.90
2018-10-19T13:18:51.258Z,18.90
2018-10-19T13:21:19.721Z,18.90
2018-10-19T13:23:48.403Z,18.90
2018-10-19T13:26:16.847Z,18.90
2018-10-19T13:28:45.279Z,19.00
2018-10-19T13:31:13.760Z,19.10
2018-10-19T13:33:42.178Z,19.20
2018-10-19T13:36:10.878Z,19.20
2018-10-19T13:38:39.183Z,19.20
2018-10-19T13:41:07.672Z,19.20
2018-10-19T13:43:36.200Z,19.20
2018-10-19T13:46:05.399Z,19.10
2018-10-19T13:48:33.882Z,19.00
2018-10-19T13:51:02.499Z,19.00
2018-10-19T13:53:30.933Z,19.00
2018-10-19T13:55:59.435Z,19.00
2018-10-19T13:58:27.993Z,18.90
2018-10-19T14:00:56.422Z,18.70
2018-10-19T14:03:24.874Z,18.80
2018-10-19T14:05:53.364Z,18.90
2018-10-19T14:08:21.858Z,19.00
2018-10-19T14:10:50.354Z,18.90
2018-10-19T14:13:18.791Z,18.90
2018-10-19T14:15:47.561Z,18.90
2018-10-19T14:18:16.331Z,19.00
2018-10-19T14:20:44.797Z,18.90
2018-10-19T14:23:13.334Z,19.00
2018-10-19T14:25:41.775Z,19.00
2018-10-19T14:28:10.230Z,19.00
2018-10-19T14:30:38.662Z,18.90
2018-10-19T14:33:07.172Z,19.00
2018-10-19T14:35:35.614Z,18.90
2018-10-19T14:38:04.187Z,18.90
2018-10-19T14:40:32.982Z,19.00
2018-10-19T14:43:01.445Z,19.00
2018-10-19T14:45:29.931Z,18.90
2018-10-19T14:47:58.396Z,18.80
2018-10-19T14:50:27.116Z,18.60
2018-10-19T14:52:56.123Z,18.50
2018-10-19T14:55:24.594Z,18.50
2018-10-19T14:57:53.105Z,18.60
2018-10-19T15:00:21.562Z,18.60
2018-10-19T15:02:50.057Z,18.60
2018-10-19T15:05:19.543Z,18.80
2018-10-19T15:07:48.045Z,18.80
2018-10-19T15:10:19.018Z,18.70
2018-10-19T15:12:47.534Z,18.80
2018-10-19T15:15:18.165Z,19.00
2018-10-19T15:17:46.858Z,18.90
2018-10-19T15:20:15.831Z,18.90
2018-10-19T15:22:44.642Z,18.90
2018-10-19T15:25:13.236Z,18.90
2018-10-19T15:27:43.027Z,19.00
2018-10-19T15:30:13.063Z,19.10
2018-10-19T15:32:41.710Z,19.20
2018-10-19T15:35:10.479Z,19.20
2018-10-19T15:37:39.611Z,19.10
2018-10-19T15:40:08.802Z,19.10
2018-10-19T15:42:37.270Z,18.90
2018-10-19T15:45:07.786Z,18.90
2018-10-19T15:47:43.123Z,18.90
2018-10-19T15:50:11.591Z,18.90
2018-10-19T15:52:40.031Z,18.80
2018-10-19T15:55:08.801Z,18.70
2018-10-19T15:57:37.487Z,18.60
2018-10-19T16:00:07.808Z,18.60
2018-10-19T16:02:36.235Z,18.50
2018-10-19T16:05:04.970Z,18.40
2018-10-19T16:07:33.409Z,18.20
2018-10-19T16:10:01.842Z,18.30
2018-10-19T16:12:30.292Z,18.10
2018-10-19T16:14:58.791Z,18.00
2018-10-19T16:17:27.279Z,17.90
2018-10-19T16:19:55.708Z,17.80
2018-10-19T16:22:24.182Z,17.90
2018-10-19T16:24:52.940Z,17.90
2018-10-19T16:27:21.497Z,17.70
2018-10-19T16:29:49.890Z,17.30
2018-10-19T16:32:18.418Z,17.00
2018-10-19T16:34:46.881Z,16.80
2018-10-19T16:37:15.314Z,16.70
2018-10-19T16:39:43.776Z,16.60
2018-10-19T16:42:12.310Z,16.50
2018-10-19T16:44:40.671Z,16.50
2018-10-19T16:47:09.144Z,16.50
2018-10-19T16:49:37.954Z,16.60
2018-10-19T16:52:06.628Z,16.40
2018-10-19T16:54:35.054Z,16.50
2018-10-19T16:57:03.842Z,16.40
2018-10-19T16:59:32.605Z,16.30
2018-10-19T17:02:01.092Z,16.40
2018-10-19T17:04:29.554Z,16.40
2018-10-19T17:06:58.040Z,16.30
2018-10-19T17:09:26.470Z,16.50
2018-10-19T17:11:55.013Z,16.40
2018-10-19T17:14:23.489Z,16.50
2018-10-19T17:16:51.991Z,16.40
2018-10-19T17:19:20.834Z,16.30
2018-10-19T17:21:49.235Z,16.30
2018-10-19T17:24:17.721Z,16.30
2018-10-19T17:26:46.200Z,16.20
2018-10-19T17:29:14.754Z,16.20
2018-10-19T17:31:43.172Z,16.20
2018-10-19T17:34:11.689Z,16.20
2018-10-19T17:36:40.151Z,16.10
2018-10-19T17:39:09.826Z,16.00
2018-10-19T17:41:38.237Z,16.20
2018-10-19T17:44:07.384Z,16.10
2018-10-19T17:46:35.850Z,16.00
2018-10-19T17:49:04.681Z,16.00
2018-10-19T17:51:33.170Z,16.10
2018-10-19T17:54:01.747Z,16.00
2018-10-19T17:56:30.159Z,16.10
2018-10-19T17:58:58.714Z,16.10
2018-10-19T18:01:27.117Z,16.00
2018-10-19T18:03:55.611Z,16.10
2018-10-19T18:06:24.058Z,16.00
2018-10-19T18:08:52.649Z,15.80
2018-10-19T18:11:21.445Z,15.90
2018-10-19T18:13:50.142Z,15.70
2018-10-19T18:16:18.579Z,15.70
2018-10-19T18:18:47.102Z,15.70
2018-10-19T18:21:15.648Z,15.80
2018-10-19T18:23:44.378Z,15.80
2018-10-19T18:26:12.918Z,15.70
2018-10-19T18:28:41.297Z,15.60
2018-10-19T18:31:09.758Z,15.60
2018-10-19T18:33:38.263Z,15.50
2018-10-19T18:36:07.003Z,15.40
2018-10-19T18:38:35.815Z,15.50
2018-10-19T18:41:04.459Z,15.50
2018-10-19T18:43:33.287Z,15.60
2018-10-19T18:46:01.744Z,15.50
2018-10-19T18:48:30.227Z,15.50
2018-10-19T18:50:58.682Z,15.70
2018-10-19T18:53:27.322Z,15.80
2018-10-19T18:55:56.193Z,15.70
2018-10-19T18:58:24.728Z,15.60
2018-10-19T19:00:53.243Z,15.60
2018-10-19T19:03:21.677Z,15.70
2018-10-19T19:05:50.487Z,15.50
2018-10-19T19:08:18.957Z,15.70
2018-10-19T19:10:47.374Z,15.50
2018-10-19T19:13:21.323Z,15.60
2018-10-19T19:15:50.123Z,15.60
2018-10-19T19:18:18.555Z,15.50
2018-10-19T19:20:46.999Z,15.50
2018-10-19T19:23:16.205Z,15.40
2018-10-19T19:25:49.969Z,15.40
2018-10-19T19:28:18.488Z,15.40
2018-10-19T19:30:46.975Z,15.20
2018-10-19T19:34:18.467Z,15.20
2018-10-19T19:36:47.017Z,15.20
2018-10-19T19:39:15.491Z,15.20
2018-10-19T19:42:52.240Z,15.30
2018-10-19T19:45:20.703Z,15.20
2018-10-19T19:47:54.574Z,15.10
2018-10-19T19:50:23.134Z,15.10
2018-10-19T19:52:51.582Z,15.20
2018-10-19T19:55:20.088Z,15.20
2018-10-19T19:57:48.522Z,15.20
2018-10-19T20:00:17.284Z,15.20
2018-10-19T20:02:45.744Z,15.20
2018-10-19T20:05:14.287Z,15.30
2018-10-19T20:07:42.991Z,15.30
2018-10-19T20:10:11.468Z,15.40
2018-10-19T20:12:40.184Z,15.50
2018-10-19T20:15:09.991Z,15.40
2018-10-19T20:17:38.427Z,15.30
2018-10-19T20:20:08.814Z,15.40
2018-10-19T20:22:37.635Z,15.30
2018-10-19T20:25:07.694Z,15.40
2018-10-19T20:27:36.567Z,15.40
2018-10-19T20:30:06.019Z,15.30
2018-10-19T20:32:34.560Z,15.40
2018-10-19T20:35:03.088Z,15.30
2018-10-19T20:37:31.631Z,15.30
2018-10-19T20:40:00.143Z,15.20
2018-10-19T20:42:28.645Z,15.30
2018-10-19T20:44:57.642Z,15.40
2018-10-19T20:47:26.151Z,15.40
2018-10-19T20:49:54.915Z,15.20
2018-10-19T20:52:23.412Z,15.10
2018-10-19T20:54:52.151Z,15.10
2018-10-19T20:57:20.585Z,15.20
2018-10-19T20:59:49.021Z,15.10
2018-10-19T21:02:17.458Z,15.00
2018-10-19T21:04:45.877Z,15.00
2018-10-19T21:07:14.380Z,14.90
2018-10-19T21:09:42.823Z,14.90
2018-10-19T21:12:11.325Z,14.90
2018-10-19T21:14:39.863Z,15.10
2018-10-19T21:17:08.384Z,15.10
2018-10-19T21:19:37.092Z,14.80
2018-10-19T21:22:06.334Z,14.60
2018-10-19T21:24:34.737Z,14.60
2018-10-19T21:27:03.217Z,14.50
2018-10-19T21:29:31.647Z,14.40
2018-10-19T21:32:00.451Z,14.40
2018-10-19T21:34:28.851Z,14.30
2018-10-19T21:36:57.324Z,14.20
2018-10-19T21:39:25.751Z,14.10
2018-10-19T21:41:54.184Z,14.00
2018-10-19T21:44:22.599Z,13.90
2018-10-19T21:46:51.278Z,13.80
2018-10-19T21:49:19.760Z,13.70
2018-10-19T21:51:48.638Z,13.60
2018-10-19T21:54:17.355Z,13.60
2018-10-19T21:56:45.873Z,13.50
2018-10-19T21:59:14.348Z,13.60
2018-10-19T22:01:42.740Z,13.50
2018-10-19T22:04:11.322Z,13.40
2018-10-19T22:06:39.744Z,13.70
2018-10-19T22:09:10.130Z,14.00
2018-10-19T22:11:39.398Z,13.70
2018-10-19T22:14:08.287Z,13.60
2018-10-19T22:16:36.795Z,13.50
2018-10-19T22:19:05.958Z,13.50
2018-10-19T22:21:34.354Z,13.50
2018-10-19T22:24:02.863Z,13.50
2018-10-19T22:26:31.611Z,13.60
2018-10-19T22:29:00.125Z,13.50
2018-10-19T22:31:28.572Z,13.40
2018-10-19T22:33:57.057Z,13.70
2018-10-19T22:36:25.523Z,13.90
2018-10-19T22:38:54.003Z,13.90
2018-10-19T22:41:22.449Z,13.70
2018-10-19T22:43:51.267Z,13.60
2018-10-19T22:46:20.039Z,13.50
2018-10-19T22:48:48.747Z,13.50
2018-10-19T22:51:17.196Z,13.50
2018-10-19T22:53:45.657Z,13.50
2018-10-19T22:56:14.390Z,13.60
2018-10-19T22:58:43.187Z,13.60
2018-10-19T23:01:12.044Z,13.50
2018-10-19T23:03:41.341Z,13.60
2018-10-19T23:06:09.896Z,13.90
2018-10-19T23:08:38.355Z,13.80
2018-10-19T23:11:07.669Z,13.70
2018-10-19T23:13:36.411Z,13.70
2018-10-19T23:16:05.304Z,13.60
2018-10-19T23:18:33.869Z,13.60
2018-10-19T23:21:02.600Z,13.60
2018-10-19T23:23:31.356Z,13.80
2018-10-19T23:25:59.845Z,13.80
2018-10-19T23:28:28.310Z,13.80
2018-10-19T23:30:56.767Z,13.80
2018-10-19T23:33:25.246Z,13.80
2018-10-19T23:35:53.686Z,13.70
2018-10-19T23:38:22.422Z,13.70
2018-10-19T23:40:50.886Z,13.60
2018-10-19T23:43:19.702Z,13.60
2018-10-19T23:45:48.132Z,13.50
2018-10-19T23:48:16.619Z,13.70
2018-10-19T23:50:45.083Z,13.90
2018-10-19T23:53:13.743Z,13.90
2018-10-19T23:55:42.102Z,14.00
2018-10-19T23:58:10.557Z,13.90
